createdAt,value
2017-05-22T00:00:34.475Z,0
2017-05-22T00:01:35.818Z,0
2017-05-22T00:02:37.153Z,0
2017-05-22T00:03:38.548Z,0
2017-05-22T00:04:39.805Z,0
2017-05-22T00:05:41.144Z,0
2017-05-22T00:06:42.484Z,0
2017-05-22T00:07:43.820Z,0
2017-05-22T00:08:45.157Z,0
2017-05-22T00:09:46.505Z,0
2017-05-22T00:10:47.842Z,0
2017-05-22T00:11:49.183Z,0
2017-05-22T00:12:50.530Z,0
2017-05-22T00:13:51.864Z,0
2017-05-22T00:14:53.200Z,0
2017-05-22T00:15:54.536Z,0
2017-05-22T00:16:55.895Z,0
2017-05-22T00:17:57.230Z,0
2017-05-22T00:18:58.576Z,0
2017-05-22T00:19:59.913Z,0
2017-05-22T00:21:01.250Z,0
2017-05-22T00:22:02.589Z,0
2017-05-22T00:23:03.927Z,0
2017-05-22T00:24:05.264Z,0
2017-05-22T00:25:06.599Z,0
2017-05-22T00:26:07.942Z,0
2017-05-22T00:27:09.281Z,0
2017-05-22T00:28:10.619Z,0
2017-05-22T00:29:11.957Z,0
2017-05-22T00:30:13.298Z,0
2017-05-22T00:31:14.634Z,0
2017-05-22T00:32:15.974Z,0
2017-05-22T00:33:17.307Z,0
2017-05-22T00:34:18.664Z,0
2017-05-22T00:35:20.004Z,0
2017-05-22T00:36:21.346Z,0
2017-05-22T00:37:22.683Z,0
2017-05-22T00:38:24.016Z,0
2017-05-22T00:39:25.349Z,0
2017-05-22T00:40:26.683Z,0
2017-05-22T00:41:28.022Z,0
2017-05-22T00:42:29.361Z,0
2017-05-22T00:43:30.712Z,0
2017-05-22T00:44:32.053Z,0
2017-05-22T00:45:33.398Z,0
2017-05-22T00:46:34.743Z,0
2017-05-22T00:47:36.084Z,0
2017-05-22T00:48:37.421Z,0
2017-05-22T00:49:38.765Z,0
2017-05-22T00:50:40.107Z,0
2017-05-22T00:51:41.448Z,0
2017-05-22T00:52:42.789Z,0
2017-05-22T00:53:44.128Z,0
2017-05-22T00:54:45.472Z,0
2017-05-22T00:55:46.820Z,0
2017-05-22T00:56:48.159Z,0
2017-05-22T00:57:49.501Z,0
2017-05-22T00:58:50.843Z,0
2017-05-22T00:59:52.182Z,0
2017-05-22T01:00:53.521Z,0
2017-05-22T01:01:54.875Z,0
2017-05-22T01:02:56.209Z,0
2017-05-22T01:03:57.554Z,0
2017-05-22T01:04:58.893Z,0
2017-05-22T01:06:00.265Z,0
2017-05-22T01:07:01.607Z,0
2017-05-22T01:08:03.017Z,0
2017-05-22T01:09:04.242Z,0
2017-05-22T01:10:05.580Z,0
2017-05-22T01:11:06.923Z,0
2017-05-22T01:12:08.263Z,0
2017-05-22T01:13:09.605Z,0
2017-05-22T01:14:10.942Z,0
2017-05-22T01:15:12.343Z,0
2017-05-22T01:16:13.632Z,0
2017-05-22T01:17:14.968Z,0
2017-05-22T01:18:16.308Z,0
2017-05-22T01:19:17.738Z,0
2017-05-22T01:20:19.072Z,0
2017-05-22T01:21:20.419Z,0
2017-05-22T01:22:21.755Z,0
2017-05-22T01:23:23.095Z,0
2017-05-22T01:24:24.436Z,0
2017-05-22T01:25:25.782Z,0
2017-05-22T01:26:27.137Z,0
2017-05-22T01:27:28.476Z,0
2017-05-22T01:28:29.813Z,0
2017-05-22T01:29:31.152Z,0
2017-05-22T01:30:32.485Z,0
2017-05-22T01:31:33.822Z,0
2017-05-22T01:32:35.162Z,0
2017-05-22T01:33:36.495Z,0
2017-05-22T01:34:37.833Z,0
2017-05-22T01:35:39.166Z,0
2017-05-22T01:36:40.508Z,0
2017-05-22T01:37:41.842Z,0
2017-05-22T01:38:43.180Z,0
2017-05-22T01:39:44.516Z,0
2017-05-22T01:40:45.855Z,0
2017-05-22T01:41:47.190Z,0
2017-05-22T01:42:48.526Z,0
2017-05-22T01:43:49.861Z,0
2017-05-22T01:44:51.194Z,0
2017-05-22T01:45:52.533Z,0
2017-05-22T01:46:53.869Z,0
2017-05-22T01:47:55.204Z,0
2017-05-22T01:48:56.542Z,0
2017-05-22T01:49:57.879Z,0
2017-05-22T01:50:59.215Z,0
2017-05-22T01:52:00.548Z,0
2017-05-22T01:53:01.880Z,0
2017-05-22T01:54:03.214Z,0
2017-05-22T01:55:04.549Z,0
2017-05-22T01:56:05.896Z,0
2017-05-22T01:57:07.234Z,0
2017-05-22T01:58:08.567Z,0
2017-05-22T01:59:09.901Z,0
2017-05-22T02:00:11.247Z,0
2017-05-22T02:01:12.595Z,0
2017-05-22T02:02:13.920Z,0
2017-05-22T02:03:15.256Z,0
2017-05-22T02:04:16.592Z,0
2017-05-22T02:05:17.925Z,0
2017-05-22T02:06:19.259Z,0
2017-05-22T02:07:20.594Z,0
2017-05-22T02:08:21.945Z,0
2017-05-22T02:09:23.278Z,0
2017-05-22T02:10:24.616Z,0
2017-05-22T02:11:25.951Z,0
2017-05-22T02:12:27.282Z,0
2017-05-22T02:13:28.619Z,0
2017-05-22T02:14:29.952Z,0
2017-05-22T02:15:31.345Z,0
2017-05-22T02:16:32.580Z,0
2017-05-22T02:17:33.933Z,0
2017-05-22T02:18:35.264Z,0
2017-05-22T02:19:36.595Z,0
2017-05-22T02:20:37.931Z,0
2017-05-22T02:21:39.287Z,0
2017-05-22T02:22:40.618Z,0
2017-05-22T02:23:41.960Z,0
2017-05-22T02:24:43.291Z,0
2017-05-22T02:25:44.626Z,0
2017-05-22T02:26:45.963Z,0
2017-05-22T02:27:47.344Z,0
2017-05-22T02:28:48.679Z,0
2017-05-22T02:29:50.018Z,0
2017-05-22T02:30:51.352Z,0
2017-05-22T02:31:52.692Z,0
2017-05-22T02:32:54.023Z,0
2017-05-22T02:33:55.372Z,0
2017-05-22T02:34:56.707Z,0
2017-05-22T02:35:58.046Z,0
2017-05-22T02:36:59.385Z,0
2017-05-22T02:38:00.721Z,0
2017-05-22T02:39:02.056Z,0
2017-05-22T02:40:03.397Z,0
2017-05-22T02:41:04.748Z,0
2017-05-22T02:42:06.073Z,0
2017-05-22T02:43:07.408Z,0
2017-05-22T02:44:08.751Z,0
2017-05-22T02:45:10.085Z,0
2017-05-22T02:46:11.463Z,0
2017-05-22T02:47:12.799Z,0
2017-05-22T02:48:14.137Z,0
2017-05-22T02:49:15.476Z,0
2017-05-22T02:50:16.813Z,0
2017-05-22T02:51:18.148Z,0
2017-05-22T02:52:19.484Z,0
2017-05-22T02:53:20.821Z,0
2017-05-22T02:54:22.155Z,0
2017-05-22T02:55:23.491Z,0
2017-05-22T02:56:24.832Z,0
2017-05-22T02:57:26.167Z,0
2017-05-22T02:58:27.500Z,0
2017-05-22T02:59:28.841Z,0
2017-05-22T03:00:30.181Z,0
2017-05-22T03:01:31.511Z,0
2017-05-22T03:02:32.852Z,0
2017-05-22T03:03:34.183Z,0
2017-05-22T03:04:35.519Z,0
2017-05-22T03:05:36.874Z,0
2017-05-22T03:06:38.212Z,0
2017-05-22T03:07:39.544Z,0
2017-05-22T03:08:40.880Z,0
2017-05-22T03:09:42.217Z,0
2017-05-22T03:10:43.551Z,0
2017-05-22T03:11:44.888Z,5
2017-05-22T03:12:46.227Z,5
2017-05-22T03:13:47.561Z,5
2017-05-22T03:14:48.899Z,5
2017-05-22T03:15:50.235Z,5
2017-05-22T03:16:51.574Z,5
2017-05-22T03:17:52.908Z,5
2017-05-22T03:18:54.249Z,5
2017-05-22T03:19:55.584Z,5
2017-05-22T03:20:56.927Z,10
2017-05-22T03:21:58.267Z,10
2017-05-22T03:22:59.606Z,10
2017-05-22T03:24:01.031Z,10
2017-05-22T03:25:02.374Z,10
2017-05-22T03:26:03.715Z,15
2017-05-22T03:27:05.054Z,15
2017-05-22T03:28:06.500Z,15
2017-05-22T03:29:07.781Z,15
2017-05-22T03:30:09.120Z,20
2017-05-22T03:31:10.453Z,20
2017-05-22T03:32:11.849Z,20
2017-05-22T03:33:13.194Z,25
2017-05-22T03:34:14.548Z,25
2017-05-22T03:35:15.886Z,25
2017-05-22T03:36:17.240Z,30
2017-05-22T03:37:18.583Z,30
2017-05-22T03:38:19.938Z,35
2017-05-22T03:39:21.273Z,35
2017-05-22T03:40:22.629Z,35
2017-05-22T03:41:23.970Z,35
2017-05-22T03:42:25.306Z,40
2017-05-22T03:43:26.646Z,40
2017-05-22T03:44:27.986Z,40
2017-05-22T03:45:29.324Z,45
2017-05-22T03:46:30.668Z,45
2017-05-22T03:47:32.003Z,50
2017-05-22T03:48:33.349Z,50
2017-05-22T03:49:34.703Z,55
2017-05-22T03:50:36.048Z,60
2017-05-22T03:51:37.381Z,60
2017-05-22T03:52:38.721Z,60
2017-05-22T03:53:40.066Z,60
2017-05-22T03:54:41.415Z,65
2017-05-22T03:55:42.759Z,65
2017-05-22T03:56:44.101Z,70
2017-05-22T03:57:45.462Z,70
2017-05-22T03:58:46.800Z,75
2017-05-22T03:59:48.136Z,75
2017-05-22T04:00:49.471Z,80
2017-05-22T04:01:50.815Z,80
2017-05-22T04:02:52.156Z,85
2017-05-22T04:03:53.501Z,85
2017-05-22T04:04:54.844Z,90
2017-05-22T04:05:56.186Z,90
2017-05-22T04:06:57.521Z,90
2017-05-22T04:07:58.867Z,95
2017-05-22T04:09:00.202Z,95
2017-05-22T04:10:01.544Z,100
2017-05-22T04:11:02.887Z,100
2017-05-22T04:12:04.225Z,100
2017-05-22T04:13:05.566Z,105
2017-05-22T04:14:06.908Z,110
2017-05-22T04:15:08.249Z,110
2017-05-22T04:16:09.595Z,115
2017-05-22T04:17:10.943Z,115
2017-05-22T04:18:12.289Z,120
2017-05-22T04:19:13.628Z,125
2017-05-22T04:20:14.968Z,125
2017-05-22T04:21:16.308Z,130
2017-05-22T04:22:17.647Z,135
2017-05-22T04:23:18.990Z,140
2017-05-22T04:24:20.423Z,145
2017-05-22T04:25:21.768Z,145
2017-05-22T04:26:23.115Z,155
2017-05-22T04:27:24.447Z,160
2017-05-22T04:28:25.788Z,160
2017-05-22T04:29:27.127Z,165
2017-05-22T04:30:28.473Z,165
2017-05-22T04:31:29.819Z,170
2017-05-22T04:32:31.160Z,175
2017-05-22T04:33:32.508Z,185
2017-05-22T04:34:33.870Z,190
2017-05-22T04:35:35.228Z,195
2017-05-22T04:36:36.567Z,200
2017-05-22T04:37:37.916Z,205
2017-05-22T04:38:39.288Z,215
2017-05-22T04:39:40.646Z,220
2017-05-22T04:40:41.988Z,230
2017-05-22T04:41:43.329Z,240
2017-05-22T04:42:44.680Z,240
2017-05-22T04:43:46.020Z,250
2017-05-22T04:44:47.364Z,260
2017-05-22T04:45:48.705Z,270
2017-05-22T04:46:50.051Z,270
2017-05-22T04:47:51.399Z,280
2017-05-22T04:48:52.744Z,285
2017-05-22T04:49:54.094Z,290
2017-05-22T04:50:55.480Z,300
2017-05-22T04:51:56.813Z,305
2017-05-22T04:52:58.161Z,310
2017-05-22T04:53:59.510Z,315
2017-05-22T04:55:00.855Z,320
2017-05-22T04:56:02.198Z,325
2017-05-22T04:57:03.546Z,315
2017-05-22T04:58:04.886Z,320
2017-05-22T04:59:06.279Z,325
2017-05-22T05:00:07.624Z,330
2017-05-22T05:01:08.968Z,340
2017-05-22T05:02:10.317Z,360
2017-05-22T05:03:11.655Z,370
2017-05-22T05:04:13.006Z,395
2017-05-22T05:05:14.345Z,400
2017-05-22T05:06:15.703Z,410
2017-05-22T05:07:17.044Z,420
2017-05-22T05:08:18.388Z,445
2017-05-22T05:09:19.742Z,450
2017-05-22T05:10:21.080Z,455
2017-05-22T05:11:22.485Z,465
2017-05-22T05:12:23.781Z,465
2017-05-22T05:13:25.126Z,480
2017-05-22T05:14:26.535Z,490
2017-05-22T05:15:27.879Z,495
2017-05-22T05:16:29.233Z,510
2017-05-22T05:17:30.580Z,525
2017-05-22T05:18:31.932Z,530
2017-05-22T05:19:33.282Z,540
2017-05-22T05:20:34.624Z,550
2017-05-22T05:21:35.975Z,560
2017-05-22T05:22:37.336Z,565
2017-05-22T05:23:38.684Z,570
2017-05-22T05:24:40.038Z,585
2017-05-22T05:25:41.402Z,595
2017-05-22T05:26:42.760Z,605
2017-05-22T05:27:44.103Z,615
2017-05-22T05:28:45.450Z,625
2017-05-22T05:29:46.801Z,635
2017-05-22T05:30:48.154Z,635
2017-05-22T05:31:49.498Z,650
2017-05-22T05:32:50.849Z,675
2017-05-22T05:33:52.195Z,675
2017-05-22T05:34:53.543Z,690
2017-05-22T05:35:54.893Z,700
2017-05-22T05:36:56.241Z,710
2017-05-22T05:37:57.593Z,720
2017-05-22T05:38:58.938Z,735
2017-05-22T05:40:00.282Z,740
2017-05-22T05:41:01.633Z,740
2017-05-22T05:42:02.985Z,745
2017-05-22T05:43:04.338Z,755
2017-05-22T05:44:05.687Z,750
2017-05-22T05:45:07.044Z,770
2017-05-22T05:46:08.397Z,785
2017-05-22T05:47:09.742Z,800
2017-05-22T05:48:11.098Z,825
2017-05-22T05:49:12.455Z,845
2017-05-22T05:50:13.810Z,855
2017-05-22T05:51:15.156Z,885
2017-05-22T05:52:16.507Z,895
2017-05-22T05:53:17.859Z,925
2017-05-22T05:54:19.206Z,940
2017-05-22T05:55:20.554Z,940
2017-05-22T05:56:21.913Z,955
2017-05-22T05:57:23.267Z,970
2017-05-22T05:58:24.619Z,980
2017-05-22T05:59:25.973Z,1000
2017-05-22T06:00:27.324Z,1000
2017-05-22T06:01:28.676Z,1005
2017-05-22T06:02:30.030Z,1025
2017-05-22T06:03:31.380Z,1035
2017-05-22T06:04:32.738Z,1040
2017-05-22T06:05:34.116Z,1055
2017-05-22T06:06:35.487Z,1090
2017-05-22T06:07:36.844Z,1100
2017-05-22T06:08:38.205Z,1095
2017-05-22T06:09:39.604Z,1105
2017-05-22T06:10:40.956Z,1135
2017-05-22T06:11:42.311Z,1150
2017-05-22T06:12:43.671Z,1160
2017-05-22T06:13:45.026Z,1165
2017-05-22T06:14:46.383Z,1200
2017-05-22T06:15:47.745Z,1215
2017-05-22T06:16:49.103Z,1250
2017-05-22T06:17:50.462Z,1250
2017-05-22T06:18:51.822Z,1265
2017-05-22T06:19:53.178Z,1275
2017-05-22T06:20:54.545Z,1300
2017-05-22T06:21:55.903Z,1335
2017-05-22T06:22:57.259Z,1360
2017-05-22T06:23:58.631Z,1375
2017-05-22T06:25:00.002Z,1350
2017-05-22T06:26:01.405Z,1345
2017-05-22T06:27:02.763Z,1370
2017-05-22T06:28:04.119Z,1365
2017-05-22T06:29:05.482Z,1400
2017-05-22T06:30:06.852Z,1430
2017-05-22T06:31:08.218Z,1440
2017-05-22T06:32:09.577Z,1465
2017-05-22T06:33:10.936Z,1490
2017-05-22T06:34:12.309Z,1500
2017-05-22T06:35:13.666Z,1500
2017-05-22T06:36:15.030Z,1510
2017-05-22T06:37:16.400Z,1535
2017-05-22T06:38:17.770Z,1485
2017-05-22T06:39:19.168Z,1480
2017-05-22T06:40:20.540Z,1490
2017-05-22T06:41:21.898Z,1505
2017-05-22T06:42:23.269Z,1495
2017-05-22T06:43:24.699Z,1455
2017-05-22T06:44:26.068Z,1440
2017-05-22T06:45:27.427Z,1530
2017-05-22T06:46:28.787Z,1510
2017-05-22T06:47:30.214Z,1490
2017-05-22T06:48:31.572Z,1370
2017-05-22T06:49:32.928Z,1230
2017-05-22T06:50:34.291Z,1125
2017-05-22T06:51:35.747Z,1090
2017-05-22T06:52:37.112Z,1180
2017-05-22T06:53:38.468Z,1295
2017-05-22T06:54:39.831Z,1365
2017-05-22T06:55:41.254Z,1390
2017-05-22T06:56:42.617Z,1400
2017-05-22T06:57:43.981Z,1415
2017-05-22T06:58:45.342Z,1410
2017-05-22T06:59:46.736Z,1470
2017-05-22T07:00:48.095Z,1485
2017-05-22T07:01:49.452Z,1570
2017-05-22T07:02:50.822Z,1695
2017-05-22T07:03:52.189Z,1725
2017-05-22T07:04:53.555Z,1720
2017-05-22T07:05:57.077Z,1860
2017-05-22T07:06:58.438Z,1940
2017-05-22T07:07:59.797Z,1935
2017-05-22T07:09:01.161Z,1920
2017-05-22T07:10:02.514Z,1910
2017-05-22T07:11:03.874Z,1920
2017-05-22T07:12:05.238Z,1910
2017-05-22T07:13:06.597Z,1950
2017-05-22T07:14:07.996Z,1910
2017-05-22T07:15:09.367Z,1955
2017-05-22T07:16:10.755Z,1965
2017-05-22T07:17:12.126Z,1915
2017-05-22T07:18:13.495Z,1970
2017-05-22T07:19:14.861Z,1965
2017-05-22T07:20:16.221Z,1965
2017-05-22T07:21:17.587Z,2010
2017-05-22T07:22:18.951Z,2015
2017-05-22T07:23:20.309Z,1985
2017-05-22T07:24:21.680Z,1975
2017-05-22T07:25:23.055Z,2055
2017-05-22T07:26:24.426Z,2205
2017-05-22T07:27:25.792Z,2245
2017-05-22T07:28:27.156Z,2200
2017-05-22T07:29:28.512Z,2175
2017-05-22T07:30:29.875Z,2210
2017-05-22T07:31:31.252Z,2195
2017-05-22T07:32:32.611Z,2215
2017-05-22T07:33:33.984Z,2140
2017-05-22T07:34:35.370Z,2165
2017-05-22T07:35:36.748Z,2090
2017-05-22T07:36:38.113Z,2025
2017-05-22T07:37:39.498Z,2160
2017-05-22T07:38:40.865Z,2035
2017-05-22T07:39:42.220Z,2050
2017-05-22T07:40:43.590Z,2045
2017-05-22T07:41:44.951Z,2050
2017-05-22T07:42:46.326Z,1945
2017-05-22T07:43:47.704Z,2030
2017-05-22T07:44:49.086Z,2125
2017-05-22T07:45:50.471Z,2120
2017-05-22T07:46:51.857Z,2105
2017-05-22T07:47:53.224Z,2080
2017-05-22T07:48:54.605Z,2070
2017-05-22T07:49:55.966Z,2170
2017-05-22T07:50:57.333Z,2120
2017-05-22T07:51:58.694Z,2010
2017-05-22T07:53:00.061Z,2105
2017-05-22T07:54:01.431Z,2200
2017-05-22T07:55:02.792Z,2100
2017-05-22T07:56:04.165Z,2120
2017-05-22T07:57:05.542Z,2175
2017-05-22T07:58:06.914Z,2140
2017-05-22T07:59:08.309Z,2290
2017-05-22T08:00:09.670Z,2245
2017-05-22T08:01:11.077Z,2185
2017-05-22T08:02:12.445Z,2260
2017-05-22T08:03:13.805Z,2325
2017-05-22T08:04:15.195Z,2255
2017-05-22T08:05:16.558Z,2245
2017-05-22T08:06:18.003Z,2285
2017-05-22T08:07:19.375Z,2285
2017-05-22T08:08:20.759Z,2285
2017-05-22T08:09:22.128Z,2350
2017-05-22T08:10:23.505Z,2340
2017-05-22T08:11:24.881Z,2305
2017-05-22T08:12:26.257Z,2235
2017-05-22T08:13:27.647Z,2380
2017-05-22T08:14:29.050Z,2285
2017-05-22T08:15:30.435Z,2325
2017-05-22T08:16:31.832Z,2325
2017-05-22T08:17:33.223Z,2330
2017-05-22T08:18:34.682Z,2275
2017-05-22T08:19:36.092Z,2255
2017-05-22T08:20:37.541Z,2380
2017-05-22T08:21:38.939Z,2500
2017-05-22T08:22:40.332Z,2380
2017-05-22T08:23:41.742Z,2470
2017-05-22T08:24:43.129Z,2580
2017-05-22T08:25:44.510Z,2370
2017-05-22T08:26:45.895Z,2395
2017-05-22T08:27:47.311Z,2525
2017-05-22T08:28:48.693Z,2520
2017-05-22T08:29:50.099Z,2535
2017-05-22T08:30:51.487Z,2505
2017-05-22T08:31:52.849Z,2405
2017-05-22T08:32:54.220Z,2440
2017-05-22T08:33:55.577Z,2445
2017-05-22T08:34:56.958Z,2475
2017-05-22T08:35:58.357Z,2555
2017-05-22T08:36:59.749Z,2540
2017-05-22T08:38:01.120Z,2615
2017-05-22T08:39:02.478Z,2640
2017-05-22T08:40:03.848Z,2585
2017-05-22T08:41:05.216Z,2695
2017-05-22T08:42:06.627Z,2640
2017-05-22T08:43:07.997Z,2700
2017-05-22T08:44:09.390Z,2625
2017-05-22T08:45:10.772Z,2645
2017-05-22T08:46:12.189Z,2560
2017-05-22T08:47:13.559Z,2740
2017-05-22T08:48:15.094Z,2745
2017-05-22T08:49:16.460Z,2725
2017-05-22T08:50:17.850Z,2705
2017-05-22T08:51:19.229Z,2600
2017-05-22T08:52:20.600Z,2730
2017-05-22T08:53:21.973Z,2745
2017-05-22T08:54:23.334Z,2765
2017-05-22T08:55:24.708Z,2835
2017-05-22T08:56:26.071Z,2760
2017-05-22T08:57:27.463Z,2690
2017-05-22T08:58:28.838Z,2720
2017-05-22T08:59:30.206Z,2805
2017-05-22T09:00:31.584Z,2860
2017-05-22T09:01:32.951Z,2870
2017-05-22T09:02:34.343Z,2825
2017-05-22T09:03:35.710Z,2895
2017-05-22T09:04:37.083Z,2770
2017-05-22T09:05:38.446Z,2940
2017-05-22T09:06:39.816Z,3080
2017-05-22T09:07:41.175Z,2810
2017-05-22T09:08:42.546Z,2755
2017-05-22T09:09:43.915Z,2925
2017-05-22T09:10:45.286Z,2950
2017-05-22T09:11:46.652Z,3050
2017-05-22T09:12:48.020Z,2995
2017-05-22T09:13:49.394Z,3055
2017-05-22T09:14:50.754Z,3035
2017-05-22T09:15:52.121Z,2960
2017-05-22T09:16:53.500Z,3125
2017-05-22T09:17:54.859Z,3185
2017-05-22T09:18:56.243Z,3040
2017-05-22T09:19:57.628Z,2930
2017-05-22T09:20:59.005Z,3135
2017-05-22T09:22:00.408Z,3140
2017-05-22T09:23:01.777Z,3125
2017-05-22T09:24:03.167Z,3130
2017-05-22T09:25:04.540Z,3220
2017-05-22T09:26:05.915Z,3220
2017-05-22T09:27:07.323Z,3160
2017-05-22T09:28:08.710Z,3125
2017-05-22T09:29:10.101Z,3100
2017-05-22T09:30:11.486Z,3145
2017-05-22T09:31:12.861Z,3080
2017-05-22T09:32:14.246Z,3040
2017-05-22T09:33:15.637Z,2990
2017-05-22T09:34:17.027Z,3200
2017-05-22T09:35:18.406Z,3160
2017-05-22T09:36:19.772Z,3145
2017-05-22T09:37:21.153Z,3145
2017-05-22T09:38:22.591Z,2985
2017-05-22T09:39:24.002Z,3385
2017-05-22T09:40:25.401Z,3105
2017-05-22T09:41:26.826Z,3060
2017-05-22T09:42:28.224Z,3225
2017-05-22T09:43:29.603Z,3215
2017-05-22T09:44:31.033Z,3195
2017-05-22T09:45:32.438Z,3305
2017-05-22T09:46:33.860Z,3290
2017-05-22T09:47:35.233Z,3270
2017-05-22T09:48:36.629Z,3250
2017-05-22T09:49:38.004Z,3205
2017-05-22T09:50:39.370Z,3250
2017-05-22T09:51:40.741Z,3265
2017-05-22T09:52:42.110Z,3240
2017-05-22T09:53:43.474Z,3225
2017-05-22T09:54:44.858Z,3515
2017-05-22T09:55:46.225Z,3395
2017-05-22T09:56:47.595Z,3285
2017-05-22T09:57:48.964Z,3410
2017-05-22T09:58:50.349Z,3440
2017-05-22T09:59:51.719Z,3420
2017-05-22T10:00:53.102Z,3420
2017-05-22T10:01:54.481Z,3290
2017-05-22T10:02:55.850Z,3225
2017-05-22T10:03:57.217Z,3440
2017-05-22T10:04:58.778Z,3480
2017-05-22T10:06:00.160Z,3425
2017-05-22T10:07:01.532Z,3465
2017-05-22T10:08:02.900Z,3460
2017-05-22T10:09:04.274Z,3360
2017-05-22T10:10:05.651Z,3410
2017-05-22T10:11:07.028Z,3490
2017-05-22T10:12:08.394Z,3430
2017-05-22T10:13:09.766Z,3495
2017-05-22T10:14:11.127Z,3420
2017-05-22T10:15:12.497Z,3475
2017-05-22T10:16:13.899Z,3575
2017-05-22T10:17:15.273Z,3595
2017-05-22T10:18:16.641Z,3575
2017-05-22T10:19:18.021Z,3610
2017-05-22T10:20:19.388Z,3370
2017-05-22T10:21:20.755Z,3515
2017-05-22T10:22:22.121Z,3565
2017-05-22T10:23:23.511Z,3650
2017-05-22T10:24:24.880Z,3515
2017-05-22T10:25:26.253Z,3510
2017-05-22T10:26:27.629Z,3750
2017-05-22T10:27:29.033Z,3620
2017-05-22T10:28:30.394Z,3580
2017-05-22T10:29:31.760Z,3760
2017-05-22T10:30:33.135Z,3535
2017-05-22T10:31:34.514Z,3570
2017-05-22T10:32:35.883Z,3610
2017-05-22T10:33:37.454Z,3615
2017-05-22T10:34:38.718Z,3450
2017-05-22T10:35:40.080Z,3490
2017-05-22T10:36:41.452Z,3650
2017-05-22T10:37:42.829Z,3680
2017-05-22T10:38:44.201Z,3870
2017-05-22T10:39:45.571Z,3865
2017-05-22T10:40:46.941Z,3620
2017-05-22T10:41:48.318Z,3695
2017-05-22T10:42:49.687Z,3485
2017-05-22T10:43:51.057Z,3405
2017-05-22T10:44:52.437Z,3650
2017-05-22T10:45:53.807Z,3650
2017-05-22T10:46:55.195Z,3875
2017-05-22T10:47:56.562Z,3705
2017-05-22T10:48:57.941Z,3775
2017-05-22T10:49:59.311Z,3625
2017-05-22T10:51:00.688Z,3425
2017-05-22T10:52:02.055Z,3350
2017-05-22T10:53:03.427Z,3480
2017-05-22T10:54:04.844Z,3585
2017-05-22T10:55:06.211Z,3550
2017-05-22T10:56:07.589Z,3000
2017-05-22T10:57:08.954Z,2840
2017-05-22T10:58:10.363Z,1010
2017-05-22T10:59:11.735Z,1000
2017-05-22T11:00:13.111Z,1075
2017-05-22T11:01:14.498Z,1270
2017-05-22T11:02:15.895Z,2565
2017-05-22T11:03:17.263Z,3970
2017-05-22T11:04:18.631Z,3930
2017-05-22T11:05:19.999Z,4100
2017-05-22T11:06:21.377Z,3960
2017-05-22T11:07:22.750Z,3765
2017-05-22T11:08:24.127Z,3910
2017-05-22T11:09:25.493Z,3780
2017-05-22T11:10:26.880Z,3690
2017-05-22T11:11:28.247Z,1145
2017-05-22T11:12:29.620Z,1200
2017-05-22T11:13:30.995Z,3565
2017-05-22T11:14:32.398Z,3575
2017-05-22T11:15:33.766Z,3685
2017-05-22T11:16:35.131Z,3880
2017-05-22T11:17:36.536Z,2225
2017-05-22T11:18:37.906Z,1865
2017-05-22T11:19:39.285Z,3110
2017-05-22T11:20:40.655Z,3660
2017-05-22T11:21:42.018Z,3525
2017-05-22T11:22:43.391Z,3680
2017-05-22T11:23:44.764Z,3880
2017-05-22T11:24:46.128Z,3625
2017-05-22T11:25:47.496Z,4060
2017-05-22T11:26:48.863Z,3915
2017-05-22T11:27:50.234Z,3500
2017-05-22T11:28:51.628Z,3850
2017-05-22T11:29:52.997Z,3735
2017-05-22T11:30:54.365Z,3765
2017-05-22T11:31:55.745Z,3850
2017-05-22T11:32:57.208Z,3440
2017-05-22T11:33:58.589Z,3815
2017-05-22T11:34:59.972Z,3695
2017-05-22T11:36:02.128Z,3670
2017-05-22T11:37:03.497Z,3675
2017-05-22T11:38:04.861Z,3665
2017-05-22T11:39:06.231Z,3630
2017-05-22T11:40:07.600Z,3550
2017-05-22T11:41:08.976Z,3650
2017-05-22T11:42:10.425Z,3695
2017-05-22T11:43:11.778Z,4035
2017-05-22T11:44:13.149Z,3705
2017-05-22T11:45:14.519Z,3690
2017-05-22T11:46:15.892Z,3775
2017-05-22T11:47:17.262Z,1360
2017-05-22T11:48:18.635Z,1800
2017-05-22T11:49:19.999Z,1475
2017-05-22T11:50:21.369Z,1250
2017-05-22T11:51:22.733Z,1325
2017-05-22T11:52:24.102Z,1040
2017-05-22T11:53:25.466Z,985
2017-05-22T11:54:26.828Z,1115
2017-05-22T11:55:28.202Z,1740
2017-05-22T11:56:29.569Z,1145
2017-05-22T11:57:30.947Z,1085
2017-05-22T11:58:32.320Z,2820
2017-05-22T11:59:33.687Z,3685
2017-05-22T12:00:35.078Z,3740
2017-05-22T12:01:36.433Z,3880
2017-05-22T12:02:37.868Z,3810
2017-05-22T12:03:39.224Z,3770
2017-05-22T12:04:40.594Z,3620
2017-05-22T12:05:41.987Z,3695
2017-05-22T12:06:43.354Z,3775
2017-05-22T12:07:44.732Z,3535
2017-05-22T12:08:46.106Z,3675
2017-05-22T12:09:47.481Z,3640
2017-05-22T12:10:48.859Z,3605
2017-05-22T12:11:50.225Z,3655
2017-05-22T12:12:51.587Z,3505
2017-05-22T12:13:52.951Z,3255
2017-05-22T12:14:54.314Z,3435
2017-05-22T12:15:55.684Z,3500
2017-05-22T12:16:57.055Z,3580
2017-05-22T12:17:58.425Z,3540
2017-05-22T12:18:59.845Z,3385
2017-05-22T12:20:01.233Z,3580
2017-05-22T12:21:02.598Z,3445
2017-05-22T12:22:03.966Z,3440
2017-05-22T12:23:05.332Z,3705
2017-05-22T12:24:06.706Z,3515
2017-05-22T12:25:08.074Z,3300
2017-05-22T12:26:09.454Z,3410
2017-05-22T12:27:10.822Z,3580
2017-05-22T12:28:12.192Z,3565
2017-05-22T12:29:13.573Z,3455
2017-05-22T12:30:14.943Z,3295
2017-05-22T12:31:16.313Z,3445
2017-05-22T12:32:17.686Z,3485
2017-05-22T12:33:19.056Z,3350
2017-05-22T12:34:20.539Z,3370
2017-05-22T12:35:21.917Z,3450
2017-05-22T12:36:23.290Z,3445
2017-05-22T12:37:24.660Z,3590
2017-05-22T12:38:26.085Z,3605
2017-05-22T12:39:27.460Z,3390
2017-05-22T12:40:28.834Z,3405
2017-05-22T12:41:30.209Z,3475
2017-05-22T12:42:31.593Z,3450
2017-05-22T12:43:32.974Z,3390
2017-05-22T12:44:34.347Z,3285
2017-05-22T12:45:35.716Z,3205
2017-05-22T12:46:37.177Z,3175
2017-05-22T12:47:38.544Z,3290
2017-05-22T12:48:39.913Z,3195
2017-05-22T12:49:41.282Z,3195
2017-05-22T12:50:42.670Z,3130
2017-05-22T12:51:44.047Z,3390
2017-05-22T12:52:45.414Z,3385
2017-05-22T12:53:46.816Z,3420
2017-05-22T12:54:48.186Z,3275
2017-05-22T12:55:49.569Z,3265
2017-05-22T12:56:50.942Z,3190
2017-05-22T12:57:52.312Z,3115
2017-05-22T12:58:53.682Z,3275
2017-05-22T12:59:55.057Z,3305
2017-05-22T13:00:56.427Z,3175
2017-05-22T13:01:57.797Z,3250
2017-05-22T13:02:59.163Z,3105
2017-05-22T13:04:00.549Z,3215
2017-05-22T13:05:01.916Z,3305
2017-05-22T13:06:03.295Z,3350
2017-05-22T13:07:04.665Z,3255
2017-05-22T13:08:06.031Z,3210
2017-05-22T13:09:07.405Z,3285
2017-05-22T13:10:08.782Z,3235
2017-05-22T13:11:10.138Z,3460
2017-05-22T13:12:11.502Z,3270
2017-05-22T13:13:12.875Z,3115
2017-05-22T13:14:14.242Z,3175
2017-05-22T13:15:15.616Z,3075
2017-05-22T13:16:17.014Z,3095
2017-05-22T13:17:18.380Z,3105
2017-05-22T13:18:19.755Z,3045
2017-05-22T13:19:21.128Z,3010
2017-05-22T13:20:22.492Z,3005
2017-05-22T13:21:23.861Z,2905
2017-05-22T13:22:25.230Z,2990
2017-05-22T13:23:26.593Z,3060
2017-05-22T13:24:27.964Z,3235
2017-05-22T13:25:29.327Z,3090
2017-05-22T13:26:30.697Z,3030
2017-05-22T13:27:32.065Z,3175
2017-05-22T13:28:33.440Z,2960
2017-05-22T13:29:34.816Z,2990
2017-05-22T13:30:36.187Z,2940
2017-05-22T13:31:37.561Z,3005
2017-05-22T13:32:38.947Z,3125
2017-05-22T13:33:40.318Z,3075
2017-05-22T13:34:41.684Z,3070
2017-05-22T13:35:43.057Z,3070
2017-05-22T13:36:44.444Z,2985
2017-05-22T13:37:45.810Z,2975
2017-05-22T13:38:47.175Z,3075
2017-05-22T13:39:48.561Z,3085
2017-05-22T13:40:49.926Z,3060
2017-05-22T13:41:51.289Z,3020
2017-05-22T13:42:52.661Z,2925
2017-05-22T13:43:54.024Z,2880
2017-05-22T13:44:55.394Z,2930
2017-05-22T13:45:56.758Z,2935
2017-05-22T13:46:58.125Z,2825
2017-05-22T13:47:59.494Z,2815
2017-05-22T13:49:00.860Z,2805
2017-05-22T13:50:02.234Z,2590
2017-05-22T13:51:03.604Z,2675
2017-05-22T13:52:04.973Z,2770
2017-05-22T13:53:06.340Z,2605
2017-05-22T13:54:07.702Z,2520
2017-05-22T13:55:09.072Z,2570
2017-05-22T13:56:10.466Z,2555
2017-05-22T13:57:11.861Z,2570
2017-05-22T13:58:13.227Z,2355
2017-05-22T13:59:14.591Z,2300
2017-05-22T14:00:15.974Z,2450
2017-05-22T14:01:17.325Z,2435
2017-05-22T14:02:18.701Z,2545
2017-05-22T14:03:20.060Z,2420